Terminal Aerodrome Forecast
Issued by NWS Shreveport, LA

Home | Current Version | Previous Version | Text Only | Print | Product List | Glossary On
Versions: 1 2 3 4 5 6 7 8 9 10 11 12 13 14 15 16 17 18 19 20 21 22 23
000
FTUS44 KSHV 231730
TAFELD
TAF
KELD 231730Z 2318/2418 20008KT P6SM VCTS FEW011 SCT035CB BKN070
     FM240200 VRB03KT P6SM VCTS OVC050CB
      TEMPO 2402/2406 VRB15G25KT 3SM -TSRA OVC025CB
     FM240800 VRB03KT 4SM -TSRA OVC015CB
     FM241300 02008KT 4SM -TSRA OVC015CB
     FM241500 03009KT 6SM -RA OVC010=

USA.gov is the U.S. government's official web portal to all federal, state and local government web resources and services.